Arkansas City, Arkansas
Current Conditions -  °F | °C
As of 9:53 AM on Thursday 30 Oct 2014 (Local Time) from KGLH Reporting Station
Clear Clear  
Wind Chill: 61°   Ceiling: Unl
Heat Index: 61°   Visibility: 10mi
Dew Point: 49°   Wind: 0mph
Humidity: 64%   Direction: NA
Pressure: 30.17"   Gusts: NA
Location:  33.61°N, 91.21°W
Report Text: KGLH 301453Z AUTO 00000KT 10SM CLR 16/09 A3017 RMK AO2 SLP224 T01610094 50003 $
Loading
Personal Weather Stations






























Interactive Weather Map New forecast layout! Learn more

10-Day Weather Forecast

Advertisements
Track Severe Weather on mobile